Arvada, CO

6:13 AM MDT on May 22, 2015 (GMT -0600)
Glen Ellen | | Change Station
CLOSE
Current Station
Personal Weather Station
Location: Arvada, CO
Elevation: 5377 ft
Nearby Weather Stations

Elev 5377 ft 39.80 °N, 105.09 °W | Updated 3 minutes ago

Rain
Rain
48.1 °F
Feels Like 48 °F
N
0.0
Wind Variable Wind from North
Gusts 0.0 mph

Today
High -- | Low -- °F
--% Chance of Precip.
Yesterday
High -- | Low -- °F
Precip. -- in
5:40 AM 8:14 PM
Waxing Crescent, 21% visible
Pressure 30.00 in
Visibility 7.0 miles
Clouds Overcast 1500 ft
Windchill 48 °F
Dew Point 45 °F
Humidity 88%
Rainfall 0.02 in
Snow Depth Not available.
UV 0 out of 12
Pollen 3.80 out of 12
Air Quality Not available.
Flu Activity Sporadic
METAR KBJC 221156Z AUTO 05003KT 7SM RA OVC015 08/07 A3000 RMK AO2

More Conditions Fewer Conditions

Pressure 30.00 in
Visibility 7.0 miles
Clouds Overcast 1500 ft
Windchill 48 °F
Dew Point 45 °F
Humidity 88%
Rainfall 0.02 in
Snow Depth Not available.
UV 0 out of 12
Pollen 3.80 out of 12
Air Quality Not available.
Flu Activity Sporadic
METAR KBJC 221156Z AUTO 05003KT 7SM RA OVC015 08/07 A3000 RMK AO2

More Conditions Fewer Conditions

Nowcast | as of 5:15 am MDT on May 22, 2015

Rain showers will become more widespread across the Front Range foothills and adjacent plains through the early morning hours. Rainfall rates will be around a tenth of an inch per hour.

×

10-Day Weather Forecast

Almanac

Astronomy

May. 22, 2015 Rise Set
Actual Time
Civil Twilight
Nautical Twilight
Astronomical Twilight
Moon
Length of Visible Light
Length of Day
Tomorrow will be .
, % of the Moon is Illuminated

Today's Extremes

State Highs State Lows

Community

WunderPhotos

Upload Photos

1,823,206 photos uploaded!

WunderBlogs® & News

Nearby

Air Quality

  Air Quality AQ Index Pollutant
Not available.

Snow Depth

Station Depth Elevation

Earthquake Activity

City Distance Mag. Time & Date
Minimum magnitude displayed is 2.5.

Coastal Water Temperatures

Place Temperature

Stations

Nearby Weather Stations

Station Location Temp. Windchill Dew Point Humidity Wind Precip. Elev Updated Type